Time;durP1;ratioP1;P1;durP2;ratioP2;P2;SDS_P1;SDS_P2;PMS_P1;PMS_P2;Temp;Humidity;BMP_temperature;BMP_pressure;BME280_temperature;BME280_humidity;BME280_pressure;Samples;Min_cycle;Max_cycle;Signal;HPM_P1;HPM_P2
2024/02/14 00:02:26;;;;;;;3.42;1.17;;;6.80;99.90;;;;;;4996185;28;20057;-63
2024/02/14 00:04:54;;;;;;;4.88;1.50;;;6.90;99.90;;;;;;4999521;28;20155;-63
2024/02/14 00:07:21;;;;;;;5.43;1.58;;;6.90;99.90;;;;;;5000211;28;20049;-63
2024/02/14 00:09:48;;;;;;;3.90;1.42;;;7.00;99.90;;;;;;4994214;28;20157;-63
2024/02/14 00:12:15;;;;;;;5.63;1.63;;;7.00;99.90;;;;;;4993686;28;20070;-63
2024/02/14 00:14:42;;;;;;;4.22;1.38;;;7.00;99.90;;;;;;5002460;28;20101;-63
2024/02/14 00:17:10;;;;;;;7.75;1.88;;;7.10;99.90;;;;;;4999379;28;20043;-63
2024/02/14 00:19:37;;;;;;;5.47;1.50;;;7.20;99.90;;;;;;4998638;28;20463;-63
2024/02/14 00:22:04;;;;;;;7.65;1.40;;;7.30;99.90;;;;;;5002452;28;20078;-63
2024/02/14 00:24:32;;;;;;;3.90;1.40;;;7.40;99.90;;;;;;5000153;28;20046;-64
2024/02/14 00:27:00;;;;;;;3.30;1.35;;;7.60;99.90;;;;;;4995761;28;20137;-64
2024/02/14 00:29:27;;;;;;;8.23;2.03;;;7.70;99.90;;;;;;4992996;28;20046;-64
2024/02/14 00:31:54;;;;;;;4.57;1.95;;;7.80;99.90;;;;;;4997678;28;20046;-64
2024/02/14 00:34:21;;;;;;;6.82;2.00;;;7.80;99.90;;;;;;5000715;28;20050;-64
2024/02/14 00:36:48;;;;;;;2.75;1.50;;;7.90;99.90;;;;;;5003332;28;20092;-64
2024/02/14 00:39:14;;;;;;;6.55;1.48;;;7.90;99.90;;;;;;4996567;28;20049;-65
2024/02/14 00:41:41;;;;;;;5.05;1.48;;;7.90;99.90;;;;;;4999132;28;20149;-64
2024/02/14 00:44:08;;;;;;;3.92;1.10;;;7.80;99.90;;;;;;4996812;28;20089;-64
2024/02/14 00:46:34;;;;;;;2.90;1.08;;;7.70;99.90;;;;;;5003051;28;20099;-64
2024/02/14 00:49:01;;;;;;;4.95;1.35;;;7.60;99.90;;;;;;5000902;28;20392;-64
2024/02/14 00:51:28;;;;;;;4.90;1.13;;;7.60;99.90;;;;;;5000565;28;20120;-64
2024/02/14 00:53:55;;;;;;;5.38;1.58;;;7.50;99.90;;;;;;4998940;28;20050;-64
2024/02/14 00:56:23;;;;;;;6.57;1.48;;;7.40;99.90;;;;;;5000187;28;20042;-64
2024/02/14 00:58:50;;;;;;;4.93;1.42;;;7.50;99.90;;;;;;5002855;28;20129;-64
2024/02/14 01:01:17;;;;;;;7.53;1.60;;;7.60;99.90;;;;;;5000685;28;20068;-64
2024/02/14 01:03:44;;;;;;;7.15;1.50;;;7.80;99.90;;;;;;5003027;28;20049;-64
2024/02/14 01:06:10;;;;;;;4.10;1.55;;;7.80;99.90;;;;;;4985550;28;20136;-64
2024/02/14 01:08:37;;;;;;;3.17;1.15;;;7.90;99.90;;;;;;5006191;28;20508;-64
2024/02/14 01:11:04;;;;;;;4.55;1.55;;;8.00;99.90;;;;;;5000335;28;20064;-65
2024/02/14 01:13:31;;;;;;;3.72;1.17;;;8.10;99.90;;;;;;5000982;28;20053;-64
2024/02/14 01:15:58;;;;;;;5.90;1.40;;;8.10;99.90;;;;;;4999041;28;20050;-64
2024/02/14 01:18:25;;;;;;;7.72;1.30;;;8.20;99.90;;;;;;4995200;28;20654;-64
2024/02/14 01:20:53;;;;;;;7.32;1.83;;;8.20;99.90;;;;;;4996274;28;20050;-64
2024/02/14 01:23:20;;;;;;;2.63;1.35;;;8.20;99.90;;;;;;4999348;28;20100;-64
2024/02/14 01:25:47;;;;;;;6.07;1.50;;;8.20;99.90;;;;;;5000468;28;20054;-64
2024/02/14 01:28:13;;;;;;;3.95;1.50;;;8.30;99.90;;;;;;5002244;28;20106;-64
2024/02/14 01:30:41;;;;;;;3.42;1.58;;;8.30;99.90;;;;;;5004223;28;20081;-64
2024/02/14 01:33:07;;;;;;;4.72;1.88;;;8.30;99.90;;;;;;4996702;28;20143;-64
2024/02/14 01:35:35;;;;;;;3.65;1.33;;;8.40;99.90;;;;;;4996955;28;20061;-64
2024/02/14 01:38:02;;;;;;;5.95;1.45;;;8.40;99.90;;;;;;4990827;28;20165;-64
2024/02/14 01:40:29;;;;;;;4.38;1.40;;;8.50;99.90;;;;;;5000649;28;20077;-64
2024/02/14 01:42:56;;;;;;;3.70;1.33;;;8.50;99.90;;;;;;4998987;28;20046;-64
2024/02/14 01:45:23;;;;;;;6.00;1.50;;;8.50;99.90;;;;;;4993275;28;20141;-64
2024/02/14 01:47:50;;;;;;;3.55;1.45;;;8.50;99.90;;;;;;4999045;28;20050;-64
2024/02/14 01:50:18;;;;;;;1.88;1.20;;;8.50;99.90;;;;;;5003244;28;20430;-64
2024/02/14 01:52:45;;;;;;;8.40;1.30;;;8.60;99.90;;;;;;5001367;28;20053;-64
2024/02/14 01:55:13;;;;;;;5.10;1.27;;;8.60;99.90;;;;;;4998781;28;20045;-64
2024/02/14 01:57:39;;;;;;;5.18;1.85;;;8.50;99.90;;;;;;5000637;28;20050;-64
2024/02/14 02:00:17;;;;;;;2.78;1.10;;;8.60;99.90;;;;;;5002352;28;20840;-64
2024/02/14 02:02:46;;;;;;;3.33;1.17;;;8.70;99.90;;;;;;5000377;28;20442;-64
2024/02/14 02:05:13;;;;;;;3.15;1.30;;;8.70;99.90;;;;;;4997124;28;20058;-64
2024/02/14 02:07:42;;;;;;;5.07;1.27;;;8.70;99.90;;;;;;4994732;28;20137;-64
2024/02/14 02:10:12;;;;;;;4.50;1.38;;;8.70;99.90;;;;;;5000271;28;20081;-64
2024/02/14 02:12:39;;;;;;;7.00;1.60;;;8.70;99.90;;;;;;4999603;28;20050;-64
2024/02/14 02:15:07;;;;;;;4.82;1.23;;;8.60;99.90;;;;;;4997173;28;20622;-64
2024/02/14 02:17:34;;;;;;;4.28;1.85;;;8.60;99.90;;;;;;5004778;28;20053;-64
2024/02/14 02:20:01;;;;;;;5.85;1.60;;;8.60;99.90;;;;;;4997702;28;20092;-64
2024/02/14 02:22:32;;;;;;;4.03;1.55;;;8.70;99.90;;;;;;4980040;28;20072;-64
2024/02/14 02:24:58;;;;;;;4.95;1.20;;;8.70;99.90;;;;;;5000426;28;20058;-64
2024/02/14 02:27:25;;;;;;;4.18;1.17;;;8.70;99.90;;;;;;4996398;28;20395;-64
2024/02/14 02:29:52;;;;;;;4.55;1.67;;;8.70;99.90;;;;;;5002199;28;20202;-64
2024/02/14 02:32:19;;;;;;;4.20;1.33;;;8.70;99.90;;;;;;4999432;28;20130;-64
2024/02/14 02:34:45;;;;;;;4.47;1.35;;;8.80;99.90;;;;;;4996359;28;20379;-64
2024/02/14 02:37:12;;;;;;;5.47;1.38;;;8.80;99.90;;;;;;5001279;28;20094;-64
2024/02/14 02:39:39;;;;;;;4.25;1.50;;;8.80;99.90;;;;;;4998446;28;20754;-64
2024/02/14 02:42:06;;;;;;;4.57;1.20;;;8.80;99.90;;;;;;4997615;28;20085;-64
2024/02/14 02:44:33;;;;;;;4.53;1.42;;;8.80;99.90;;;;;;4997105;28;20049;-64
2024/02/14 02:47:00;;;;;;;4.47;1.67;;;8.90;99.90;;;;;;5000105;28;20050;-64
2024/02/14 02:49:28;;;;;;;2.95;1.40;;;8.90;99.90;;;;;;4995748;28;20438;-64
2024/02/14 02:51:55;;;;;;;2.83;1.52;;;8.80;99.90;;;;;;5000215;28;20053;-64
2024/02/14 02:54:23;;;;;;;4.43;1.15;;;8.80;99.90;;;;;;4992677;28;20092;-65
2024/02/14 02:56:50;;;;;;;2.58;1.35;;;8.80;99.90;;;;;;4998553;28;20042;-65
2024/02/14 02:59:16;;;;;;;6.53;1.50;;;8.80;99.90;;;;;;4997067;28;20069;-65
2024/02/14 03:01:44;;;;;;;3.72;1.35;;;8.80;99.90;;;;;;4999625;28;20487;-65
2024/02/14 03:04:13;;;;;;;5.28;1.45;;;8.80;99.90;;;;;;4998259;28;20058;-65
2024/02/14 03:06:40;;;;;;;5.53;1.20;;;8.80;99.90;;;;;;4994449;28;20423;-65
2024/02/14 03:09:07;;;;;;;4.60;1.38;;;8.80;99.90;;;;;;4998549;28;20056;-65
2024/02/14 03:11:37;;;;;;;2.30;1.20;;;8.80;99.90;;;;;;4995818;28;20057;-65
2024/02/14 03:14:04;;;;;;;3.10;1.40;;;8.80;99.90;;;;;;4997003;28;20069;-65
2024/02/14 03:16:30;;;;;;;5.22;1.42;;;8.70;99.90;;;;;;5005919;28;20050;-65
2024/02/14 03:18:58;;;;;;;4.68;1.90;;;8.70;99.90;;;;;;4997989;28;20042;-65
2024/02/14 03:21:25;;;;;;;3.42;1.30;;;8.60;99.90;;;;;;4995089;28;20042;-65
2024/02/14 03:23:53;;;;;;;4.43;1.30;;;8.60;99.90;;;;;;4997596;28;20476;-65
2024/02/14 03:26:20;;;;;;;2.13;1.20;;;8.60;99.90;;;;;;4995530;28;20039;-65
2024/02/14 03:28:48;;;;;;;2.25;1.10;;;8.60;99.90;;;;;;4983701;28;20071;-65
2024/02/14 03:31:15;;;;;;;2.00;0.90;;;8.70;99.90;;;;;;4998718;28;20100;-65
2024/02/14 03:33:43;;;;;;;4.80;1.25;;;8.80;99.90;;;;;;4990001;28;20050;-65
2024/02/14 03:36:10;;;;;;;5.70;1.10;;;8.90;99.90;;;;;;4992354;28;20165;-65
2024/02/14 03:38:39;;;;;;;4.60;1.17;;;8.90;99.90;;;;;;4993299;28;20101;-65
2024/02/14 03:41:07;;;;;;;1.67;0.93;;;9.00;99.90;;;;;;4992527;28;20053;-65
2024/02/14 03:43:34;;;;;;;2.35;1.10;;;9.10;99.90;;;;;;5003784;28;20053;-65
2024/02/14 03:46:01;;;;;;;2.25;1.10;;;9.10;99.90;;;;;;4993285;28;20117;-65
2024/02/14 03:48:27;;;;;;;1.95;0.95;;;9.20;99.90;;;;;;4987046;28;20062;-65
2024/02/14 03:50:54;;;;;;;1.73;0.80;;;9.20;99.90;;;;;;4997738;28;20057;-65
2024/02/14 03:53:21;;;;;;;1.88;1.10;;;9.20;99.90;;;;;;4997627;28;20062;-65
2024/02/14 03:55:49;;;;;;;2.30;0.90;;;9.20;99.90;;;;;;4995475;28;20105;-65
2024/02/14 03:58:22;;;;;;;1.65;1.00;;;9.40;99.90;;;;;;4994118;28;20046;-65
2024/02/14 04:00:52;;;;;;;1.23;1.00;;;9.40;99.90;;;;;;4992899;28;20695;-65
2024/02/14 04:03:19;;;;;;;2.75;1.35;;;9.40;99.90;;;;;;4990819;28;20054;-65
2024/02/14 04:05:47;;;;;;;2.95;1.10;;;9.40;99.90;;;;;;4990527;28;20050;-65
2024/02/14 04:08:14;;;;;;;4.70;1.20;;;9.40;99.90;;;;;;4993347;28;20058;-65
2024/02/14 04:10:41;;;;;;;2.80;0.90;;;9.40;99.90;;;;;;4991154;28;20121;-65
2024/02/14 04:13:09;;;;;;;2.45;1.20;;;9.50;99.90;;;;;;4991427;28;20181;-65
2024/02/14 04:15:36;;;;;;;2.67;1.25;;;9.50;99.90;;;;;;4991056;28;20709;-65
2024/02/14 04:18:06;;;;;;;3.08;1.10;;;9.60;99.90;;;;;;4996703;28;20046;-65
2024/02/14 04:20:34;;;;;;;3.03;1.10;;;9.60;99.90;;;;;;4994588;28;20458;-65
2024/02/14 04:23:01;;;;;;;1.63;0.82;;;9.60;99.90;;;;;;4996411;28;20096;-66
2024/02/14 04:25:28;;;;;;;1.05;0.80;;;9.60;99.90;;;;;;4998194;28;20104;-65
2024/02/14 04:27:54;;;;;;;2.05;0.80;;;9.60;99.90;;;;;;4981771;28;20046;-65
2024/02/14 04:30:21;;;;;;;2.80;1.00;;;9.60;99.90;;;;;;4995316;28;20089;-65
2024/02/14 04:32:49;;;;;;;1.25;0.95;;;9.60;99.90;;;;;;5000072;28;20037;-66
2024/02/14 04:35:15;;;;;;;3.50;1.30;;;9.60;99.90;;;;;;5001024;28;20053;-66
2024/02/14 04:37:46;;;;;;;5.00;1.20;;;9.70;99.90;;;;;;4998962;28;20157;-66
2024/02/14 04:40:12;;;;;;;;;;;9.70;99.90;;;;;;4998699;28;20058;-66
2024/02/14 04:42:40;;;;;;;1.75;0.88;;;9.70;99.90;;;;;;4996853;28;19948;-65
2024/02/14 04:45:07;;;;;;;4.68;1.00;;;9.70;99.90;;;;;;4999904;28;20053;-65
2024/02/14 04:47:33;;;;;;;1.17;0.85;;;9.70;99.90;;;;;;5001392;28;20050;-66
2024/02/14 04:50:03;;;;;;;1.63;1.00;;;9.70;99.90;;;;;;5000137;28;20042;-66
2024/02/14 04:52:30;;;;;;;2.75;1.00;;;9.80;99.90;;;;;;4993934;28;20053;-66
2024/02/14 04:54:57;;;;;;;1.85;0.77;;;9.80;99.90;;;;;;4999469;28;20042;-66
2024/02/14 04:57:25;;;;;;;1.52;0.90;;;9.80;99.90;;;;;;4995295;28;20054;-66
2024/02/14 04:59:52;;;;;;;3.20;0.95;;;9.90;99.90;;;;;;4999997;28;20129;-66
2024/02/14 05:02:19;;;;;;;2.25;0.70;;;9.90;99.90;;;;;;5000979;28;20532;-66
2024/02/14 05:04:45;;;;;;;3.35;0.98;;;9.90;99.90;;;;;;4996128;28;20131;-66
2024/02/14 05:07:12;;;;;;;1.88;1.10;;;9.90;99.90;;;;;;4995179;28;20058;-66
2024/02/14 05:09:39;;;;;;;3.55;1.73;;;9.90;99.90;;;;;;4997189;28;20050;-65
2024/02/14 05:12:10;;;;;;;2.03;1.27;;;9.90;99.90;;;;;;4996812;28;20054;-65
2024/02/14 05:14:38;;;;;;;3.25;1.20;;;9.90;99.90;;;;;;4992940;28;20410;-65
2024/02/14 05:17:05;;;;;;;1.38;0.60;;;9.90;99.90;;;;;;4979772;28;20042;-65
2024/02/14 05:19:32;;;;;;;2.80;0.90;;;9.90;99.90;;;;;;5002935;28;20523;-65
2024/02/14 05:21:59;;;;;;;2.55;1.20;;;9.90;99.90;;;;;;4999092;28;20125;-65
2024/02/14 05:24:30;;;;;;;2.75;1.02;;;9.90;99.90;;;;;;5003196;28;20046;-65
2024/02/14 05:26:57;;;;;;;6.32;1.15;;;10.00;99.90;;;;;;5000279;28;20089;-65
2024/02/14 05:29:23;;;;;;;2.65;1.20;;;10.00;99.90;;;;;;4998922;28;20148;-65
2024/02/14 05:31:52;;;;;;;1.52;0.90;;;9.90;99.90;;;;;;4995480;28;20050;-65
2024/02/14 05:34:19;;;;;;;2.63;0.90;;;9.90;99.90;;;;;;4990184;28;20061;-65
2024/02/14 05:36:46;;;;;;;1.98;0.63;;;9.80;99.90;;;;;;5000302;28;20137;-65
2024/02/14 05:39:14;;;;;;;1.00;0.90;;;9.80;99.90;;;;;;4997414;28;20073;-65
2024/02/14 05:41:41;;;;;;;1.45;0.85;;;9.80;99.90;;;;;;5000666;28;20561;-65
2024/02/14 05:44:07;;;;;;;1.25;0.90;;;9.70;99.90;;;;;;4998050;28;20054;-65
2024/02/14 05:46:34;;;;;;;2.20;1.08;;;9.70;99.90;;;;;;4998303;28;20050;-65
2024/02/14 05:49:01;;;;;;;1.23;0.85;;;9.70;99.90;;;;;;4996350;28;20506;-65
2024/02/14 05:51:28;;;;;;;2.35;1.48;;;9.70;99.90;;;;;;5005544;28;20112;-65
2024/02/14 05:53:55;;;;;;;2.25;1.80;;;9.60;99.90;;;;;;5001573;28;20093;-65
2024/02/14 05:56:22;;;;;;;3.35;1.30;;;9.50;99.90;;;;;;4995451;28;20057;-65
2024/02/14 05:58:49;;;;;;;1.73;1.00;;;9.50;99.90;;;;;;5003751;28;20053;-65
2024/02/14 06:01:16;;;;;;;2.95;1.13;;;9.40;99.90;;;;;;5001276;28;20077;-65
2024/02/14 06:03:43;;;;;;;3.65;0.95;;;9.40;99.90;;;;;;5000294;28;20077;-65
2024/02/14 06:06:10;;;;;;;1.80;0.82;;;9.50;99.90;;;;;;4994541;28;20137;-65
2024/02/14 06:08:37;;;;;;;2.58;1.15;;;9.60;99.90;;;;;;5003265;28;20054;-65
2024/02/14 06:11:04;;;;;;;2.65;0.80;;;9.70;99.90;;;;;;4998011;28;20046;-65
2024/02/14 06:13:30;;;;;;;1.50;0.90;;;9.90;99.90;;;;;;5000097;28;20045;-65
2024/02/14 06:15:57;;;;;;;1.10;0.90;;;10.00;99.90;;;;;;4998208;28;20120;-64
2024/02/14 06:18:24;;;;;;;2.17;1.65;;;10.10;99.90;;;;;;4998640;28;20143;-64
2024/02/14 06:20:51;;;;;;;1.90;1.10;;;10.10;99.90;;;;;;4990827;28;20042;-65
2024/02/14 06:23:18;;;;;;;2.53;1.05;;;10.00;99.90;;;;;;5002168;28;20110;-65
2024/02/14 06:25:44;;;;;;;2.22;1.02;;;10.00;99.90;;;;;;5003611;28;20097;-65
2024/02/14 06:28:11;;;;;;;2.70;0.90;;;10.00;99.90;;;;;;4994137;28;20046;-65
2024/02/14 06:30:38;;;;;;;0.95;0.80;;;10.00;99.90;;;;;;4991353;28;20105;-64
2024/02/14 06:33:05;;;;;;;2.85;0.80;;;10.00;99.90;;;;;;4987753;28;20050;-65
2024/02/14 06:35:32;;;;;;;3.17;1.05;;;10.00;99.90;;;;;;4996885;28;20046;-64
2024/02/14 06:37:59;;;;;;;3.33;1.10;;;10.00;99.90;;;;;;4994746;28;20046;-64
2024/02/14 06:40:31;;;;;;;4.05;0.90;;;9.90;99.90;;;;;;5002628;28;20545;-64
2024/02/14 06:42:59;;;;;;;3.13;1.02;;;9.90;99.90;;;;;;5001795;28;20045;-64
2024/02/14 06:45:30;;;;;;;1.35;0.80;;;10.00;99.90;;;;;;5002895;28;20085;-64
2024/02/14 06:47:57;;;;;;;0.82;0.70;;;9.90;99.90;;;;;;5004385;28;20077;-64
2024/02/14 06:50:28;;;;;;;1.95;0.98;;;9.90;99.90;;;;;;5004877;28;20050;-64
2024/02/14 06:52:59;;;;;;;1.25;0.90;;;9.80;99.90;;;;;;5005326;28;20494;-64
2024/02/14 06:55:27;;;;;;;1.88;1.05;;;9.80;99.90;;;;;;4999130;28;20058;-63
2024/02/14 06:57:54;;;;;;;1.83;0.90;;;9.80;99.90;;;;;;5005092;28;20045;-63
2024/02/14 07:00:21;;;;;;;1.65;1.02;;;9.80;99.90;;;;;;5004034;28;20145;-64
2024/02/14 07:02:48;;;;;;;2.63;1.05;;;9.90;99.90;;;;;;5002733;28;20517;-64
2024/02/14 07:05:14;;;;;;;1.48;0.80;;;10.00;99.90;;;;;;5003815;28;20720;-64
2024/02/14 07:07:41;;;;;;;2.85;1.00;;;10.10;99.90;;;;;;4999258;28;20491;-64
2024/02/14 07:10:08;;;;;;;1.83;1.10;;;10.20;99.90;;;;;;4998610;28;20077;-64
2024/02/14 07:12:38;;;;;;;1.73;1.10;;;10.20;99.90;;;;;;4999241;28;20054;-64
2024/02/14 07:15:06;;;;;;;1.52;1.05;;;10.20;99.90;;;;;;5001820;28;20577;-64
2024/02/14 07:17:33;;;;;;;3.72;1.40;;;10.20;99.90;;;;;;5000983;28;20053;-64
2024/02/14 07:20:00;;;;;;;2.20;1.20;;;10.10;99.90;;;;;;5005562;28;20184;-64
2024/02/14 07:22:27;;;;;;;2.13;1.30;;;10.10;99.90;;;;;;4994684;28;20045;-64
2024/02/14 07:24:54;;;;;;;4.53;1.40;;;10.10;99.90;;;;;;4995252;28;20041;-64
2024/02/14 07:27:21;;;;;;;2.58;1.00;;;10.20;99.90;;;;;;4998714;28;20101;-64
2024/02/14 07:29:48;;;;;;;2.63;1.13;;;10.20;99.90;;;;;;5003887;28;20536;-64
2024/02/14 07:32:16;;;;;;;4.07;1.25;;;10.20;99.90;;;;;;4999913;28;20053;-64
2024/02/14 07:34:43;;;;;;;7.68;3.88;;;10.20;99.90;;;;;;4996876;28;20050;-64
2024/02/14 07:37:10;;;;;;;4.00;2.75;;;10.30;99.90;;;;;;4999847;28;20637;-64
2024/02/14 07:39:37;;;;;;;5.03;2.17;;;10.30;99.90;;;;;;4996901;28;20061;-64
2024/02/14 07:42:04;;;;;;;2.35;1.30;;;10.40;99.90;;;;;;4998884;28;20054;-64
2024/02/14 07:44:32;;;;;;;1.83;1.00;;;10.40;99.90;;;;;;4994391;28;20050;-64
2024/02/14 07:46:59;;;;;;;3.33;1.40;;;10.40;99.90;;;;;;4994303;28;20042;-64
2024/02/14 07:49:30;;;;;;;1.08;1.00;;;10.40;99.90;;;;;;5001457;28;20072;-64
2024/02/14 07:51:57;;;;;;;4.32;1.50;;;10.50;99.90;;;;;;5004717;28;20465;-64
2024/02/14 07:54:24;;;;;;;5.57;1.33;;;10.50;99.90;;;;;;4999672;28;20077;-64
2024/02/14 07:56:50;;;;;;;2.63;1.05;;;10.60;99.90;;;;;;4999972;28;20081;-64
2024/02/14 07:59:17;;;;;;;2.70;1.08;;;10.60;99.90;;;;;;5006037;28;20050;-64
2024/02/14 08:01:44;;;;;;;1.75;1.20;;;10.60;99.90;;;;;;5001368;28;20045;-64
2024/02/14 08:04:11;;;;;;;3.70;1.10;;;10.70;99.90;;;;;;5001598;28;20114;-64
2024/02/14 08:06:37;;;;;;;3.95;1.40;;;10.80;99.90;;;;;;4995858;28;20486;-64
2024/02/14 08:09:06;;;;;;;3.35;1.20;;;10.90;99.90;;;;;;5000335;28;20056;-65
2024/02/14 08:11:33;;;;;;;4.03;1.42;;;10.90;99.90;;;;;;4990380;28;20054;-64
2024/02/14 08:14:00;;;;;;;4.53;1.30;;;10.90;99.90;;;;;;5007075;28;20513;-64
2024/02/14 08:16:27;;;;;;;4.97;1.70;;;10.90;99.90;;;;;;4984315;28;20043;-64
2024/02/14 08:18:58;;;;;;;4.15;1.65;;;10.90;99.90;;;;;;5001416;28;20054;-64
2024/02/14 08:21:26;;;;;;;2.95;1.10;;;10.80;99.90;;;;;;5000308;28;20041;-64
2024/02/14 08:23:58;;;;;;;2.47;1.10;;;10.90;99.90;;;;;;5003678;28;20480;-64
2024/02/14 08:26:26;;;;;;;3.42;1.20;;;10.90;99.90;;;;;;5006868;28;20506;-64
2024/02/14 08:28:53;;;;;;;4.72;1.70;;;10.90;99.90;;;;;;5003738;28;20086;-64
2024/02/14 08:31:20;;;;;;;5.30;1.95;;;10.90;99.90;;;;;;4994220;28;20476;-64
2024/02/14 08:33:47;;;;;;;6.60;2.38;;;11.00;99.90;;;;;;5005205;28;20066;-64
2024/02/14 08:36:14;;;;;;;4.65;2.25;;;10.70;99.90;;;;;;5004780;28;20631;-63
2024/02/14 08:38:41;;;;;;;6.90;2.42;;;10.50;99.90;;;;;;5004470;28;20050;-64
2024/02/14 08:41:08;;;;;;;6.47;2.95;;;10.50;99.90;;;;;;4996331;28;20046;-64
2024/02/14 08:43:35;;;;;;;9.05;2.47;;;10.50;99.90;;;;;;5001963;28;20116;-64
2024/02/14 08:46:02;;;;;;;5.05;2.30;;;10.50;99.90;;;;;;5006896;28;20049;-64
2024/02/14 08:48:33;;;;;;;4.88;1.80;;;10.70;99.90;;;;;;4994977;28;20054;-64
2024/02/14 08:51:00;;;;;;;9.65;6.63;;;10.70;99.90;;;;;;4997256;28;20061;-64
2024/02/14 08:56:02;;;;;;;8.32;4.80;;;10.90;99.90;;;;;;5042271;23;20041;-64
2024/02/14 08:58:29;;;;;;;2.95;1.95;;;11.10;99.90;;;;;;5028157;28;20513;-64
2024/02/14 09:00:56;;;;;;;4.40;1.80;;;11.30;99.90;;;;;;5044629;28;20072;-64
2024/02/14 09:03:38;;;;;;;3.22;1.60;;;11.40;99.90;;;;;;5047609;28;20049;-64
2024/02/14 09:06:05;;;;;;;2.28;1.20;;;11.60;99.90;;;;;;5047017;28;20133;-64
2024/02/14 09:08:32;;;;;;;2.63;1.50;;;11.70;99.90;;;;;;5047794;28;20049;-64
2024/02/14 09:10:59;;;;;;;5.18;1.25;;;11.80;99.90;;;;;;5044364;28;20155;-64
2024/02/14 09:13:27;;;;;;;2.90;1.60;;;11.90;99.90;;;;;;5044522;28;20528;-64
2024/02/14 09:15:54;;;;;;;2.65;1.23;;;12.00;99.90;;;;;;5039878;28;20052;-64
2024/02/14 09:18:21;;;;;;;2.97;1.40;;;12.00;99.90;;;;;;5049462;28;20452;-64
2024/02/14 09:20:49;;;;;;;1.23;1.00;;;12.10;99.90;;;;;;5044884;28;20525;-64
2024/02/14 09:23:20;;;;;;;3.28;1.40;;;12.10;99.90;;;;;;5041376;28;20053;-64
2024/02/14 09:25:47;;;;;;;1.90;1.17;;;12.10;99.90;;;;;;5053786;28;20706;-64
2024/02/14 09:28:15;;;;;;;4.13;1.10;;;12.30;99.90;;;;;;5052482;28;20044;-64
2024/02/14 09:30:42;;;;;;;3.95;1.30;;;12.30;99.90;;;;;;5053293;28;20052;-64
2024/02/14 09:33:09;;;;;;;2.70;1.40;;;12.30;99.90;;;;;;5050247;28;20123;-64
2024/02/14 09:35:38;;;;;;;2.58;1.10;;;12.30;99.90;;;;;;5050483;28;20040;-64
2024/02/14 09:38:05;;;;;;;2.50;1.17;;;12.30;99.90;;;;;;5048424;28;20045;-63
2024/02/14 09:40:32;;;;;;;2.85;1.40;;;12.40;99.90;;;;;;5048803;28;20128;-65
2024/02/14 09:43:05;;;;;;;2.90;1.73;;;12.50;99.90;;;;;;5049657;28;20460;-64
2024/02/14 09:45:33;;;;;;;2.63;1.50;;;12.60;99.90;;;;;;5049447;28;20628;-64
2024/02/14 09:48:01;;;;;;;3.70;1.52;;;12.70;99.90;;;;;;5048866;28;20048;-64
2024/02/14 09:50:30;;;;;;;5.82;1.92;;;12.50;99.90;;;;;;5046873;28;20063;-63
2024/02/14 09:52:58;;;;;;;5.73;1.47;;;12.50;99.90;;;;;;5047814;28;20084;-64
2024/02/14 09:55:26;;;;;;;2.15;1.33;;;12.50;99.90;;;;;;5049474;28;20072;-64
2024/02/14 09:57:54;;;;;;;4.20;1.30;;;12.50;99.90;;;;;;5044803;28;20071;-64
2024/02/14 10:00:22;;;;;;;1.02;0.77;;;12.50;99.90;;;;;;5030982;28;20045;-64
2024/02/14 10:02:49;;;;;;;2.33;0.80;;;12.60;99.90;;;;;;5047342;28;20118;-64
2024/02/14 10:05:16;;;;;;;3.15;1.00;;;12.70;99.90;;;;;;5048871;28;20473;-64
2024/02/14 10:07:44;;;;;;;2.42;0.95;;;12.70;99.90;;;;;;5054467;28;20143;-64
2024/02/14 10:10:11;;;;;;;2.13;0.80;;;12.80;99.90;;;;;;5054105;28;20044;-64
2024/02/14 10:12:41;;;;;;;2.60;1.08;;;12.70;99.90;;;;;;5053939;28;20045;-64
2024/02/14 10:15:08;;;;;;;2.33;1.20;;;12.70;99.90;;;;;;5053449;28;20114;-64
2024/02/14 10:17:36;;;;;;;6.63;1.10;;;12.70;99.90;;;;;;5051620;28;20469;-64
2024/02/14 10:20:05;;;;;;;0.52;0.52;;;12.80;99.90;;;;;;5050391;28;20044;-64
2024/02/14 10:22:36;;;;;;;2.90;1.00;;;12.80;99.90;;;;;;5050048;28;20113;-64
2024/02/14 10:25:04;;;;;;;3.47;0.80;;;12.80;99.90;;;;;;5051457;28;20056;-64
2024/02/14 10:27:34;;;;;;;3.58;1.13;;;12.70;99.90;;;;;;5049113;28;20146;-64
2024/02/14 10:30:01;;;;;;;4.32;1.20;;;12.80;99.90;;;;;;5055550;28;20455;-64
2024/02/14 10:32:27;;;;;;;2.30;0.93;;;12.90;99.90;;;;;;5050978;28;20087;-64
2024/02/14 10:34:54;;;;;;;1.95;0.90;;;13.00;99.90;;;;;;5054711;28;20127;-64
2024/02/14 10:37:23;;;;;;;4.00;1.90;;;13.00;99.90;;;;;;5047692;28;20044;-64
2024/02/14 10:39:52;;;;;;;3.63;1.40;;;13.10;99.90;;;;;;5034740;28;20052;-64
2024/02/14 10:42:19;;;;;;;3.60;1.23;;;13.20;99.90;;;;;;5052619;28;20064;-64
2024/02/14 10:44:49;;;;;;;1.40;1.10;;;13.40;99.90;;;;;;5052976;28;20464;-64
2024/02/14 10:47:20;;;;;;;2.38;0.93;;;13.40;99.90;;;;;;5042645;28;20053;-64
2024/02/14 10:49:51;;;;;;;2.38;1.10;;;13.50;99.90;;;;;;5047750;28;20048;-64
2024/02/14 10:52:18;;;;;;;2.08;1.00;;;13.80;99.90;;;;;;5046914;28;20049;-64
2024/02/14 10:54:59;;;;;;;1.85;1.10;;;13.90;99.90;;;;;;5049968;28;20076;-64
2024/02/14 10:57:27;;;;;;;1.30;0.90;;;13.90;99.90;;;;;;5044400;28;20501;-64
2024/02/14 10:59:54;;;;;;;2.60;1.20;;;13.80;99.90;;;;;;5049870;28;20044;-64
2024/02/14 11:02:22;;;;;;;3.28;1.20;;;13.80;99.90;;;;;;5050636;28;20053;-64
2024/02/14 11:04:53;;;;;;;3.00;1.25;;;13.80;99.90;;;;;;5051057;28;20152;-64
2024/02/14 11:07:22;;;;;;;1.85;1.25;;;13.60;99.90;;;;;;5044024;28;20049;-64
2024/02/14 11:10:09;;;;;;;2.65;1.15;;;13.50;99.90;;;;;;5041908;28;20448;-64
2024/02/14 11:12:38;;;;;;;6.20;1.38;;;13.50;99.90;;;;;;5050659;28;20041;-64
2024/02/14 11:15:20;;;;;;;1.90;1.30;;;13.50;99.90;;;;;;5051570;28;20045;-64
2024/02/14 11:17:54;;;;;;;5.38;1.65;;;13.50;99.90;;;;;;5049958;28;20045;-64
2024/02/14 11:20:31;;;;;;;2.08;1.20;;;13.50;99.90;;;;;;5041540;28;20061;-64
2024/02/14 11:23:11;;;;;;;2.50;1.40;;;13.40;99.90;;;;;;5053608;28;20044;-64
2024/02/14 11:25:38;;;;;;;2.42;1.50;;;13.40;99.90;;;;;;5042332;28;20046;-63
2024/02/14 11:28:16;;;;;;;1.70;1.30;;;13.50;99.90;;;;;;5053310;28;20411;-63
2024/02/14 11:30:44;;;;;;;3.97;1.40;;;13.50;99.90;;;;;;5047572;28;20068;-63
2024/02/14 11:33:20;;;;;;;3.30;1.63;;;13.50;99.90;;;;;;5050237;28;20060;-63
2024/02/14 11:35:56;;;;;;;3.45;2.10;;;13.50;99.90;;;;;;5049434;28;20131;-63
2024/02/14 11:38:27;;;;;;;4.70;1.33;;;13.60;99.90;;;;;;5039128;28;20059;-63
2024/02/14 11:40:56;;;;;;;4.38;1.60;;;13.80;99.90;;;;;;5049209;28;20072;-63
2024/02/14 11:43:24;;;;;;;4.35;1.95;;;14.00;99.90;;;;;;5044120;28;20041;-63
2024/02/14 11:45:52;;;;;;;4.25;1.67;;;14.00;99.90;;;;;;5045452;28;20644;-63
2024/02/14 11:48:20;;;;;;;3.15;1.48;;;14.10;99.90;;;;;;5046261;28;20111;-63
2024/02/14 11:50:47;;;;;;;5.25;1.60;;;14.10;99.90;;;;;;5050168;28;20087;-63
2024/02/14 11:53:21;;;;;;;3.75;1.58;;;14.00;99.90;;;;;;5047473;28;20076;-63
2024/02/14 11:55:48;;;;;;;4.22;1.50;;;14.00;99.90;;;;;;5048037;28;20259;-63
2024/02/14 11:58:16;;;;;;;3.35;1.90;;;14.10;99.90;;;;;;5047424;28;20480;-63
2024/02/14 12:00:44;;;;;;;3.15;1.75;;;14.10;99.90;;;;;;5048712;28;20053;-63
2024/02/14 12:03:15;;;;;;;2.00;1.40;;;14.00;99.90;;;;;;5041800;28;20447;-63
2024/02/14 12:05:43;;;;;;;;;;;14.00;99.90;;;;;;5044104;28;20124;-63
2024/02/14 12:08:11;;;;;;;5.32;2.03;;;14.10;99.90;;;;;;5045523;28;19925;-63
2024/02/14 12:10:38;;;;;;;2.35;1.50;;;14.20;99.90;;;;;;5046546;28;20053;-63
2024/02/14 12:13:13;;;;;;;3.70;1.55;;;14.20;99.90;;;;;;5051410;28;20165;-63
2024/02/14 12:15:45;;;;;;;2.15;1.30;;;14.20;99.90;;;;;;5050081;28;20153;-63
2024/02/14 12:18:12;;;;;;;4.57;1.60;;;14.30;99.90;;;;;;5046405;28;20080;-63
2024/02/14 12:20:39;;;;;;;3.80;1.38;;;14.40;99.90;;;;;;5043046;28;20052;-63
2024/02/14 12:23:06;;;;;;;4.22;1.88;;;14.40;99.90;;;;;;5049778;28;20144;-63
2024/02/14 12:25:33;;;;;;;3.42;1.20;;;14.40;99.90;;;;;;5048343;28;20083;-63
2024/02/14 12:28:00;;;;;;;2.88;1.83;;;14.50;99.90;;;;;;5047715;28;20064;-63
2024/02/14 12:30:46;;;;;;;5.00;1.67;;;14.50;99.90;;;;;;5051402;28;20052;-63
2024/02/14 12:33:13;;;;;;;3.53;1.50;;;14.80;99.90;;;;;;5048154;28;20118;-63
2024/02/14 12:35:48;;;;;;;2.60;1.10;;;14.80;99.90;;;;;;5049626;28;20045;-63
2024/02/14 12:38:16;;;;;;;6.53;1.48;;;15.00;99.90;;;;;;5050658;28;20616;-63
2024/02/14 12:40:46;;;;;;;2.65;1.20;;;15.10;99.90;;;;;;5053453;28;20556;-63
2024/02/14 12:43:14;;;;;;;;;;;15.10;99.90;;;;;;5055012;28;20067;-63
2024/02/14 12:45:41;;;;;;;5.50;1.67;;;15.10;99.90;;;;;;5052596;28;19925;-63
2024/02/14 12:48:10;;;;;;;3.50;1.75;;;15.10;99.90;;;;;;5051160;28;20040;-63
2024/02/14 12:50:37;;;;;;;4.80;1.48;;;15.20;99.90;;;;;;5050661;28;20044;-63
2024/02/14 12:53:05;;;;;;;3.45;1.73;;;15.20;99.90;;;;;;5053935;28;20044;-63
2024/02/14 12:55:32;;;;;;;3.88;1.70;;;15.10;99.90;;;;;;5050716;28;20068;-62
2024/02/14 12:57:58;;;;;;;1.83;1.40;;;15.00;99.90;;;;;;5051725;28;20049;-63
2024/02/14 13:00:26;;;;;;;2.00;1.20;;;15.00;99.90;;;;;;5053013;28;20045;-63